Time;durP1;ratioP1;P1;durP2;ratioP2;P2;SDS_P1;SDS_P2;PMS_P1;PMS_P2;Temp;Humidity;BMP_temperature;BMP_pressure;BME280_temperature;BME280_humidity;BME280_pressure;Samples;Min_cycle;Max_cycle;Signal;HPM_P1;HPM_P2
2023/04/24 00:00:20;;;;;;;14.45;8.23;;;;;;;9.61;100.00;100646.53;5133361;27;20034;-78
2023/04/24 00:02:46;;;;;;;10.07;8.35;;;;;;;9.31;100.00;100628.31;5115307;27;20067;-77
2023/04/24 00:05:13;;;;;;;12.32;7.80;;;;;;;9.33;100.00;100644.38;5133646;27;20080;-78
2023/04/24 00:07:39;;;;;;;13.85;8.15;;;;;;;9.31;100.00;100592.81;5133524;27;20027;-78
2023/04/24 00:10:06;;;;;;;12.18;9.00;;;;;;;9.21;100.00;100598.84;5134029;27;20489;-79
2023/04/24 00:12:32;;;;;;;15.40;8.80;;;;;;;9.09;100.00;100609.97;5132705;27;20031;-79
2023/04/24 00:14:57;;;;;;;15.80;8.68;;;;;;;9.30;100.00;100603.78;5132935;27;20512;-80
2023/04/24 00:17:22;;;;;;;11.15;8.02;;;;;;;9.63;100.00;100646.50;5114269;27;20030;-79
2023/04/24 00:19:50;;;;;;;13.43;8.23;;;;;;;9.49;100.00;100602.69;5133277;27;20114;-78
2023/04/24 00:22:20;;;;;;;15.50;9.05;;;;;;;9.28;100.00;100613.97;5133643;27;20039;-81
2023/04/24 00:24:45;;;;;;;16.88;8.77;;;;;;;8.99;100.00;100618.56;5133154;27;20031;-80
2023/04/24 00:27:11;;;;;;;15.45;8.48;;;;;;;9.04;100.00;100609.19;5132622;27;20023;-78
2023/04/24 00:29:36;;;;;;;15.13;8.73;;;;;;;9.07;100.00;100616.75;5114594;28;20069;-79
2023/04/24 00:32:02;;;;;;;17.70;8.93;;;;;;;9.38;100.00;100670.50;5114619;27;20036;-78
2023/04/24 00:34:27;;;;;;;13.98;8.80;;;;;;;9.40;100.00;100667.09;5114350;28;20471;-78
2023/04/24 00:36:53;;;;;;;13.70;8.48;;;;;;;9.27;100.00;100678.25;5132526;28;20039;-79
2023/04/24 00:39:19;;;;;;;15.20;8.88;;;;;;;9.41;100.00;100670.47;5114888;28;20023;-80
2023/04/24 00:41:53;;;;;;;11.40;8.43;;;;;;;8.76;100.00;100567.25;5132924;28;20058;-80
2023/04/24 00:44:19;;;;;;;15.02;9.00;;;;;;;8.92;100.00;100618.63;5114346;28;20027;-79
2023/04/24 00:46:46;;;;;;;17.02;9.25;;;;;;;8.73;100.00;100608.66;5132988;28;20435;-79
2023/04/24 00:49:12;;;;;;;15.07;9.40;;;;;;;9.30;100.00;100665.53;5133198;28;20180;-80
2023/04/24 00:51:37;;;;;;;13.07;9.50;;;;;;;9.24;100.00;100669.84;5132816;28;20502;-79
2023/04/24 00:54:03;;;;;;;16.42;11.30;;;;;;;8.55;100.00;100577.63;5133214;28;20394;-81
2023/04/24 00:56:29;;;;;;;20.40;14.25;;;;;;;8.81;100.00;100595.09;5114128;28;20035;-80
2023/04/24 00:58:55;;;;;;;20.23;14.70;;;;;;;8.91;100.00;100634.72;5132649;28;20043;-79
2023/04/24 01:01:22;;;;;;;24.27;15.30;;;;;;;8.87;100.00;100622.91;5114311;28;20486;-78
2023/04/24 01:03:50;;;;;;;22.75;15.77;;;;;;;9.14;100.00;100668.25;5114146;28;20051;-79
2023/04/24 01:06:16;;;;;;;22.17;15.88;;;;;;;8.75;100.00;100634.03;5114581;28;20027;-78
2023/04/24 01:08:43;;;;;;;29.00;16.73;;;;;;;8.75;100.00;100619.63;5132675;27;20061;-79
2023/04/24 01:11:13;;;;;;;26.17;16.25;;;;;;;8.82;100.00;100642.38;5136490;27;20031;-79
2023/04/24 01:13:39;;;;;;;28.23;16.27;;;;;;;9.08;100.00;100660.72;5118607;27;20027;-77
2023/04/24 01:16:05;;;;;;;26.02;16.80;;;;;;;9.04;100.00;100679.34;5136660;27;20018;-78
2023/04/24 01:18:30;;;;;;;25.33;16.20;;;;;;;9.04;100.00;100684.41;5118219;27;20106;-79
2023/04/24 01:20:58;;;;;;;28.40;15.98;;;;;;;8.65;100.00;100648.50;5136174;27;20041;-78
2023/04/24 01:23:24;;;;;;;23.02;16.42;;;;;;;9.13;100.00;100694.50;5117834;27;20035;-77
2023/04/24 01:25:50;;;;;;;22.73;15.88;;;;;;;8.69;100.00;100639.97;5117765;27;20027;-77
2023/04/24 01:28:16;;;;;;;21.23;15.05;;;;;;;8.82;100.00;100676.19;5136342;27;20035;-78
2023/04/24 01:30:42;;;;;;;22.45;15.43;;;;;;;8.76;100.00;100655.97;5136398;27;20080;-79
2023/04/24 01:33:08;;;;;;;22.42;15.88;;;;;;;8.96;100.00;100694.66;5117839;27;20038;-77
2023/04/24 01:35:35;;;;;;;24.67;15.98;;;;;;;8.65;100.00;100658.63;5136231;27;20031;-78
2023/04/24 01:38:01;;;;;;;29.05;16.65;;;;;;;9.05;100.00;100684.41;5136043;27;20043;-79
2023/04/24 01:40:27;;;;;;;23.60;16.48;;;;;;;8.72;100.00;100661.94;5136055;27;20055;-78
2023/04/24 01:42:52;;;;;;;23.23;16.38;;;;;;;8.70;100.00;100702.50;5135401;27;20485;-77
2023/04/24 01:45:18;;;;;;;25.27;16.48;;;;;;;8.94;100.00;100709.03;5116927;27;20027;-79
2023/04/24 01:47:45;;;;;;;25.10;16.02;;;;;;;8.51;100.00;100662.97;5127464;27;20271;-80
2023/04/24 01:50:10;;;;;;;25.75;15.43;;;;;;;8.57;100.00;100668.00;5137836;27;20027;-78
2023/04/24 01:52:38;;;;;;;17.67;13.77;;;;;;;7.93;100.00;100643.97;5156167;27;20023;-78
2023/04/24 01:55:04;;;;;;;20.48;14.45;;;;;;;8.59;100.00;100739.78;5155798;27;20038;-78
2023/04/24 01:57:33;;;;;;;22.67;14.77;;;;;;;8.50;100.00;100762.63;5137231;27;20026;-77
2023/04/24 01:59:59;;;;;;;20.75;15.23;;;;;;;8.57;100.00;100716.13;5134889;27;20042;-77
2023/04/24 02:02:27;;;;;;;23.77;15.07;;;;;;;8.72;100.00;100759.09;5101420;28;20441;-78
2023/04/24 02:04:53;;;;;;;17.98;13.50;;;;;;;8.43;100.00;100742.41;5093306;28;20040;-77
2023/04/24 02:07:19;;;;;;;19.55;13.82;;;;;;;8.46;100.00;100727.19;5094446;28;20063;-78
2023/04/24 02:09:44;;;;;;;17.95;13.25;;;;;;;8.77;100.00;100773.44;5094315;28;20117;-78
2023/04/24 02:12:10;;;;;;;18.27;14.18;;;;;;;8.68;100.00;100784.47;5094735;28;20132;-76
2023/04/24 02:14:35;;;;;;;19.48;13.25;;;;;;;9.07;100.00;100712.31;5094038;28;20028;-77
2023/04/24 02:17:01;;;;;;;18.02;13.60;;;;;;;8.55;100.00;100677.31;5093139;28;20028;-79
2023/04/24 02:19:26;;;;;;;25.10;14.45;;;;;;;8.91;100.00;100723.44;5094084;28;20058;-78
2023/04/24 02:21:59;;;;;;;19.85;14.68;;;;;;;8.51;100.00;100678.19;5093941;28;20032;-78
2023/04/24 02:24:25;;;;;;;24.10;14.32;;;;;;;9.00;100.00;100748.72;5094230;28;20478;-78
2023/04/24 02:26:51;;;;;;;25.35;16.30;;;;;;;8.40;100.00;100701.91;5093040;28;20046;-79
2023/04/24 02:29:20;;;;;;;23.25;16.00;;;;;;;8.51;100.00;100761.78;5107546;28;20100;-80
2023/04/24 02:31:45;;;;;;;24.17;16.17;;;;;;;8.15;100.00;100708.81;5113812;28;20035;-79
2023/04/24 02:34:11;;;;;;;24.25;16.10;;;;;;;8.11;100.00;100714.75;5114523;28;20045;-80
2023/04/24 02:36:36;;;;;;;27.77;17.20;;;;;;;8.54;100.00;100730.50;5114517;28;20027;-80
2023/04/24 02:39:03;;;;;;;21.48;15.35;;;;;;;8.57;100.00;100771.91;5113056;28;20028;-80
2023/04/24 02:41:31;;;;;;;21.83;15.60;;;;;;;8.21;100.00;100735.78;5114742;28;20517;-80
2023/04/24 02:43:58;;;;;;;23.35;15.63;;;;;;;8.25;100.00;100745.06;5133164;27;20027;-77
2023/04/24 02:46:23;;;;;;;19.95;15.43;;;;;;;8.36;100.00;100748.41;5120796;27;20490;-79
2023/04/24 02:48:49;;;;;;;25.65;15.73;;;;;;;8.57;100.00;100816.66;5104392;28;20035;-80
2023/04/24 02:51:14;;;;;;;19.42;15.82;;;;;;;8.69;100.00;100809.78;5095521;28;20502;-80
2023/04/24 02:53:39;;;;;;;24.25;16.52;;;;;;;8.15;100.00;100756.94;5112924;28;20434;-80
2023/04/24 02:56:05;;;;;;;23.40;15.82;;;;;;;8.24;100.00;100817.63;5114392;28;20024;-78
2023/04/24 02:58:30;;;;;;;22.63;15.82;;;;;;;8.07;100.00;100778.91;5113007;28;20027;-78
2023/04/24 03:00:56;;;;;;;21.80;15.30;;;;;;;8.28;100.00;100781.34;5112664;28;20027;-78
2023/04/24 03:03:22;;;;;;;22.52;15.95;;;;;;;8.58;100.00;100836.91;5113923;28;20382;-77
2023/04/24 03:05:47;;;;;;;20.77;15.80;;;;;;;8.42;100.00;100845.44;5133818;27;20082;-78
2023/04/24 03:08:14;;;;;;;22.48;16.48;;;;;;;8.55;100.00;100852.16;5115717;27;20034;-78
2023/04/24 03:10:39;;;;;;;23.25;17.35;;;;;;;7.94;100.00;100815.28;5123570;27;20113;-73
2023/04/24 03:13:05;;;;;;;23.13;16.27;;;;;;;8.47;100.00;100874.16;5150665;27;20110;-74
2023/04/24 03:15:30;;;;;;;22.80;16.38;;;;;;;8.16;100.00;100884.41;5150382;27;20027;-80
2023/04/24 03:17:56;;;;;;;23.55;16.85;;;;;;;7.78;100.00;100790.84;5133497;27;20136;-76
2023/04/24 03:20:21;;;;;;;31.83;17.52;;;;;;;8.34;100.00;100880.13;5113036;27;20043;-77
2023/04/24 03:22:47;;;;;;;24.25;17.20;;;;;;;7.99;100.00;100808.47;5116357;27;20110;-76
2023/04/24 03:25:12;;;;;;;23.77;17.13;;;;;;;8.44;100.00;100904.56;5133631;27;20031;-79
2023/04/24 03:27:39;;;;;;;22.98;17.50;;;;;;;8.16;100.00;100907.19;5116780;27;20063;-77
2023/04/24 03:30:06;;;;;;;23.73;17.05;;;;;;;7.68;100.00;100832.22;5132991;27;20026;-75
2023/04/24 03:32:32;;;;;;;26.00;17.52;;;;;;;7.81;100.00;100932.56;5104098;27;20043;-78
2023/04/24 03:34:57;;;;;;;28.67;16.65;;;;;;;7.88;100.00;100835.53;5115153;27;20038;-79
2023/04/24 03:37:23;;;;;;;22.10;16.83;;;;;;;8.40;100.00;100923.16;5133598;27;20034;-83
2023/04/24 03:39:48;;;;;;;24.98;17.52;;;;;;;8.04;100.00;100942.66;5132118;27;20043;-76
2023/04/24 03:42:13;;;;;;;25.15;17.80;;;;;;;8.12;100.00;100956.16;5131673;27;20042;-79
2023/04/24 03:44:39;;;;;;;27.98;17.77;;;;;;;7.76;100.00;100919.09;5133263;27;20035;-82
2023/04/24 03:47:04;;;;;;;27.42;18.63;;;;;;;7.60;100.00;100923.34;5132341;27;20034;-75
2023/04/24 03:49:30;;;;;;;26.95;18.83;;;;;;;8.04;100.00;100978.97;5133336;27;20041;-74
2023/04/24 03:51:55;;;;;;;25.08;17.73;;;;;;;7.86;100.00;100979.00;5131471;27;20038;-74
2023/04/24 03:54:21;;;;;;;24.52;16.80;;;;;;;8.02;100.00;101000.91;5131290;27;20049;-75
2023/04/24 03:56:46;;;;;;;23.90;16.45;;;;;;;7.90;100.00;100971.38;5132612;27;20416;-78
2023/04/24 03:59:12;;;;;;;24.08;16.02;;;;;;;8.30;100.00;101025.38;5132384;27;20031;-84
2023/04/24 04:01:37;;;;;;;23.67;15.30;;;;;;;7.92;100.00;101033.84;5131996;27;20027;-86
2023/04/24 04:04:04;;;;;;;21.60;16.27;;;;;;;8.08;100.00;101038.03;5131387;27;20049;-80
2023/04/24 04:06:30;;;;;;;25.02;17.90;;;;;;;8.37;100.00;101054.94;5129132;27;20130;-78
2023/04/24 04:08:56;;;;;;;25.13;17.02;;;;;;;7.70;100.00;100997.56;5115145;27;20035;-79
2023/04/24 04:11:22;;;;;;;25.27;17.73;;;;;;;7.71;100.00;101062.50;5120950;27;20062;-80
2023/04/24 04:13:48;;;;;;;20.80;16.05;;;;;;;7.42;100.00;101027.06;5119649;27;20394;-77
2023/04/24 04:16:16;;;;;;;19.08;15.02;;;;;;;8.13;100.00;101097.13;5113255;27;20027;-79
2023/04/24 04:18:42;;;;;;;19.42;14.43;;;;;;;8.25;100.00;101112.34;5132724;27;20058;-80
2023/04/24 04:21:07;;;;;;;21.35;14.15;;;;;;;8.22;100.00;101128.34;5132319;27;20065;-75
2023/04/24 04:23:33;;;;;;;17.48;12.98;;;;;;;9.29;100.00;101069.78;5128561;27;20053;-74
2023/04/24 04:25:58;;;;;;;18.08;13.27;;;;;;;7.98;100.00;101125.84;5114549;27;20034;-76
2023/04/24 04:28:24;;;;;;;21.40;13.77;;;;;;;7.61;100.00;101070.91;5133123;27;20023;-75
2023/04/24 04:30:53;;;;;;;20.35;13.63;;;;;;;7.71;100.00;101130.81;5117612;27;20039;-79
2023/04/24 04:33:20;;;;;;;24.80;14.70;;;;;;;7.74;100.00;101125.78;5133242;27;20023;-80
2023/04/24 04:35:48;;;;;;;17.60;12.77;;;;;;;8.34;100.00;101191.72;5114906;28;20516;-84
2023/04/24 04:38:14;;;;;;;18.88;13.27;;;;;;;7.98;100.00;101160.44;5133061;28;20031;-77
2023/04/24 04:40:40;;;;;;;19.50;12.77;;;;;;;8.33;100.00;101206.94;5114435;28;20490;-84
2023/04/24 04:43:06;;;;;;;21.55;12.80;;;;;;;8.43;100.00;101208.63;5114404;27;20029;-79
2023/04/24 04:45:32;;;;;;;17.23;13.27;;;;;;;8.59;100.00;101223.84;5118835;27;20047;-77
2023/04/24 04:48:00;;;;;;;17.83;12.95;;;;;;;8.20;100.00;101180.69;5118336;27;20031;-76
2023/04/24 04:50:26;;;;;;;21.60;13.98;;;;;;;8.64;100.00;101244.97;5114420;28;20062;-83
2023/04/24 04:52:52;;;;;;;20.27;13.43;;;;;;;8.98;100.00;101239.88;5115836;28;20067;-83
2023/04/24 04:55:19;;;;;;;18.38;13.07;;;;;;;9.25;100.00;101280.44;5114438;28;20028;-80
2023/04/24 04:57:45;;;;;;;23.30;13.20;;;;;;;8.80;100.00;101154.53;5097104;28;20084;-82
2023/04/24 05:00:11;;;;;;;21.05;12.63;;;;;;;9.70;100.00;101277.78;5116443;28;20428;-81
2023/04/24 05:02:37;;;;;;;20.52;13.70;;;;;;;9.27;100.00;101225.47;5097255;28;20508;-79
2023/04/24 05:05:02;;;;;;;18.77;13.30;;;;;;;10.04;100.00;101281.84;5115435;28;20059;-87
2023/04/24 05:07:29;;;;;;;24.25;14.63;;;;;;;9.69;100.00;101217.66;5097959;28;20032;-82
2023/04/24 05:09:54;;;;;;;26.13;15.32;;;;;;;10.16;100.00;101236.06;5113875;28;20039;-83
2023/04/24 05:12:20;;;;;;;25.67;14.85;;;;;;;9.99;100.00;101207.38;5097511;28;20035;-82
2023/04/24 05:14:45;;;;;;;23.35;12.95;;;;;;;10.29;100.00;101257.19;5115656;28;20023;-79
2023/04/24 05:17:11;;;;;;;19.27;12.15;;;;;;;10.61;100.00;101255.28;5098225;28;20035;-82
2023/04/24 05:19:38;;;;;;;18.08;11.45;;;;;;;10.59;100.00;101251.03;5098330;28;20024;-82
2023/04/24 05:22:06;;;;;;;16.98;11.25;;;;;;;10.93;100.00;101199.03;5116134;28;20046;-82
2023/04/24 05:24:32;;;;;;;18.50;11.32;;;;;;;11.22;100.00;101186.84;5116063;28;20027;-82
2023/04/24 05:26:58;;;;;;;15.20;10.77;;;;;;;11.34;100.00;101237.63;5115940;28;20106;-82
2023/04/24 05:29:24;;;;;;;18.10;9.98;;;;;;;12.01;100.00;101220.69;5097495;28;20028;-84
2023/04/24 05:31:49;;;;;;;18.13;10.02;;;;;;;11.83;100.00;101174.22;5097354;28;20031;-83
2023/04/24 05:34:16;;;;;;;12.07;9.57;;;;;;;12.08;100.00;101193.41;5097680;28;20032;-86
2023/04/24 05:36:42;;;;;;;14.02;9.73;;;;;;;12.23;100.00;101170.22;5116868;28;20072;-84
2023/04/24 05:39:08;;;;;;;13.80;9.77;;;;;;;12.48;100.00;101110.28;5118012;28;20114;-83
2023/04/24 05:41:33;;;;;;;13.60;8.88;;;;;;;12.19;100.00;101115.91;5116864;28;20023;-83
2023/04/24 05:43:59;;;;;;;14.07;9.65;;;;;;;12.36;100.00;101089.28;5115644;28;20218;-84
2023/04/24 05:46:25;;;;;;;14.50;8.80;;;;;;;12.67;100.00;101057.25;5098095;28;20061;-83
2023/04/24 05:48:50;;;;;;;16.27;9.35;;;;;;;12.50;100.00;101046.53;5115712;28;20052;-85
2023/04/24 05:51:16;;;;;;;16.08;9.68;;;;;;;12.09;100.00;101063.38;5115232;28;20036;-82
2023/04/24 05:53:41;;;;;;;16.40;9.55;;;;;;;12.50;100.00;100991.22;5096739;28;20031;-84
2023/04/24 05:56:06;;;;;;;13.18;9.02;;;;;;;12.27;100.00;101039.28;5096622;28;20031;-85
2023/04/24 05:58:32;;;;;;;11.13;8.60;;;;;;;13.03;100.00;101020.78;5096814;28;20092;-83
2023/04/24 06:00:58;;;;;;;15.05;8.68;;;;;;;13.11;100.00;100995.97;5100236;27;20477;-82
2023/04/24 06:03:24;;;;;;;15.73;9.10;;;;;;;11.98;100.00;100888.59;5135451;27;20110;-82
2023/04/24 06:05:51;;;;;;;13.05;8.98;;;;;;;12.15;100.00;100906.94;5134573;27;20082;-83
2023/04/24 06:08:16;;;;;;;17.25;8.95;;;;;;;12.77;100.00;100961.78;5114525;28;20497;-82
2023/04/24 06:10:42;;;;;;;17.77;9.45;;;;;;;12.83;100.00;100954.00;5130632;27;20110;-79
2023/04/24 06:13:07;;;;;;;18.42;9.10;;;;;;;12.94;100.00;100950.31;5096452;28;20493;-83
2023/04/24 06:15:33;;;;;;;13.20;8.68;;;;;;;13.21;100.00;100932.75;5114038;28;20035;-80
2023/04/24 06:17:58;;;;;;;23.70;8.90;;;;;;;13.47;100.00;100923.56;5096547;28;20015;-81
2023/04/24 06:20:24;;;;;;;13.73;8.80;;;;;;;14.00;100.00;100857.44;5114641;28;20028;-83
2023/04/24 06:22:50;;;;;;;14.07;8.48;;;;;;;13.40;100.00;100878.63;5130474;27;20042;-84
2023/04/24 06:25:15;;;;;;;13.68;8.57;;;;;;;13.67;100.00;100867.69;5114757;28;20024;-83
2023/04/24 06:27:41;;;;;;;13.52;7.97;;;;;;;14.16;100.00;100851.03;5114359;28;20035;-85
2023/04/24 06:30:07;;;;;;;12.10;8.20;;;;;;;14.51;100.00;100856.81;5096250;28;20123;-80
2023/04/24 06:32:32;;;;;;;13.23;8.45;;;;;;;14.23;100.00;100801.34;5113848;28;20035;-81
2023/04/24 06:34:58;;;;;;;14.60;8.50;;;;;;;13.51;100.00;100745.53;5096329;28;20031;-82
2023/04/24 06:37:23;;;;;;;11.65;8.18;;;;;;;14.01;100.00;100830.97;5113829;28;20468;-81
2023/04/24 06:39:49;;;;;;;12.20;8.65;;;;;;;14.28;100.00;100837.91;5114621;28;20035;-82
2023/04/24 06:42:15;;;;;;;15.40;8.43;;;;;;;14.71;100.00;100822.94;5096108;28;20067;-76
2023/04/24 06:44:40;;;;;;;19.77;8.35;;;;;;;14.77;100.00;100769.81;5114161;28;20032;-82
2023/04/24 06:47:10;;;;;;;14.30;8.32;;;;;;;15.40;100.00;100779.63;5113203;28;20032;-81
2023/04/24 06:49:37;;;;;;;11.00;8.23;;;;;;;15.16;100.00;100759.97;5096118;28;20081;-81
2023/04/24 06:52:03;;;;;;;10.85;6.97;;;;;;;14.86;100.00;100816.47;5095684;28;20479;-82
2023/04/24 06:54:29;;;;;;;11.05;7.57;;;;;;;15.19;100.00;100754.72;5096107;28;20033;-83
2023/04/24 06:56:57;;;;;;;14.35;6.82;;;;;;;15.00;100.00;100746.00;5095797;28;20036;-83
2023/04/24 06:59:23;;;;;;;16.27;8.10;;;;;;;15.96;100.00;100807.56;5096396;28;20023;-83
2023/04/24 07:01:48;;;;;;;12.02;7.70;;;;;;;16.04;100.00;100826.94;5114173;28;20478;-82
2023/04/24 07:04:14;;;;;;;11.02;7.40;;;;;;;15.39;100.00;100803.56;5113565;28;20066;-82
2023/04/24 07:06:39;;;;;;;13.85;7.47;;;;;;;15.78;100.00;100805.66;5094780;28;20039;-83
2023/04/24 07:09:05;;;;;;;15.32;7.63;;;;;;;15.23;100.00;100706.81;5095767;28;20036;-85
2023/04/24 07:11:31;;;;;;;13.13;7.05;;;;;;;16.67;100.00;100805.69;5095512;28;20027;-82
2023/04/24 07:13:56;;;;;;;13.05;7.15;;;;;;;15.58;100.00;100747.41;5095888;28;20031;-83
2023/04/24 07:16:22;;;;;;;11.77;6.75;;;;;;;16.40;100.00;100797.28;5095543;28;20034;-83
2023/04/24 07:18:47;;;;;;;9.85;6.88;;;;;;;15.63;100.00;100744.69;5113825;28;20024;-76
2023/04/24 07:21:13;;;;;;;9.63;6.60;;;;;;;16.75;100.00;100807.94;5113224;28;20088;-83
2023/04/24 07:23:38;;;;;;;9.52;6.60;;;;;;;16.91;100.00;100816.72;5095567;28;20074;-81
2023/04/24 07:26:04;;;;;;;13.57;6.32;;;;;;;16.44;100.00;100780.88;5113725;28;20487;-83
2023/04/24 07:28:32;;;;;;;13.00;6.57;;;;;;;16.54;100.00;100781.38;5095092;28;20041;-85
2023/04/24 07:30:59;;;;;;;11.65;6.30;;;;;;;16.63;100.00;100767.34;5113015;28;20084;-82
2023/04/24 07:33:25;;;;;;;11.43;6.40;;;;;;;16.55;100.00;100718.88;5095277;28;20036;-83
2023/04/24 07:35:51;;;;;;;11.82;6.43;;;;;;;16.54;100.00;100722.31;5094619;28;20032;-81
2023/04/24 07:38:16;;;;;;;11.38;5.82;;;;;;;17.93;100.00;100803.75;5113364;28;20027;-82
2023/04/24 07:40:42;;;;;;;9.10;5.20;;;;;;;18.30;100.00;100819.22;5095328;28;20031;-81
2023/04/24 07:43:07;;;;;;;12.90;5.63;;;;;;;18.25;100.00;100846.91;5094832;28;20036;-81
2023/04/24 07:45:36;;;;;;;8.10;5.10;;;;;;;17.10;100.00;100808.19;5112594;28;20501;-83
2023/04/24 07:48:02;;;;;;;11.00;5.35;;;;;;;17.05;100.00;100853.81;5095383;28;20089;-82
2023/04/24 07:50:27;;;;;;;10.23;5.22;;;;;;;17.69;100.00;100853.72;5112676;28;20118;-81
2023/04/24 07:52:53;;;;;;;15.65;7.80;;;;;;;16.96;100.00;100867.00;5095044;28;20114;-81
2023/04/24 07:55:18;;;;;;;11.35;5.28;;;;;;;17.48;100.00;100859.72;5113042;28;20097;-81
2023/04/24 07:57:44;;;;;;;8.50;4.82;;;;;;;17.65;100.00;100868.44;5094573;28;20027;-83
2023/04/24 08:00:10;;;;;;;7.00;4.53;;;;;;;18.63;100.00;100889.78;5112297;28;20177;-85
2023/04/24 08:02:35;;;;;;;9.25;4.57;;;;;;;18.45;100.00;100902.66;5095196;28;20020;-85
2023/04/24 08:05:02;;;;;;;12.32;5.82;;;;;;;17.75;100.00;100905.72;5112589;28;20055;-81
2023/04/24 08:07:28;;;;;;;6.65;4.30;;;;;;;18.20;100.00;100866.88;5094922;28;20599;-83
2023/04/24 08:09:53;;;;;;;7.63;4.70;;;;;;;17.86;100.00;100858.97;5095114;28;20031;-86
2023/04/24 08:12:19;;;;;;;9.25;4.78;;;;;;;17.28;100.00;100905.13;5111679;28;20027;-79
2023/04/24 08:14:44;;;;;;;7.93;4.78;;;;;;;18.90;100.00;100963.22;5094067;28;20028;-81
2023/04/24 08:17:10;;;;;;;10.30;4.78;;;;;;;18.98;100.00;100974.03;5112385;28;20039;-80
2023/04/24 08:19:35;;;;;;;11.05;5.13;;;;;;;18.03;100.00;100931.13;5112039;28;20035;-82
2023/04/24 08:22:01;;;;;;;8.50;4.63;;;;;;;18.02;100.00;100921.75;5112654;28;20028;-81
2023/04/24 08:24:26;;;;;;;10.77;5.18;;;;;;;18.58;100.00;100940.66;5113037;28;20045;-81
2023/04/24 08:26:53;;;;;;;10.15;5.30;;;;;;;17.99;100.00;100971.59;5094750;28;20028;-81
2023/04/24 08:29:19;;;;;;;11.20;5.45;;;;;;;19.10;100.00;100946.81;5094814;28;20023;-81
2023/04/24 08:31:45;;;;;;;9.50;5.15;;;;;;;18.85;100.00;100988.41;5112859;28;20089;-81
2023/04/24 08:34:10;;;;;;;10.10;5.95;;;;;;;18.84;100.00;100998.75;5112121;28;20031;-83
2023/04/24 08:36:37;;;;;;;7.82;4.80;;;;;;;17.62;100.00;100968.88;5094047;28;20031;-80
2023/04/24 08:39:06;;;;;;;10.80;4.93;;;;;;;18.61;100.00;100978.34;5094661;28;20043;-83
2023/04/24 08:41:34;;;;;;;9.05;4.75;;;;;;;17.73;100.00;100973.56;5091473;28;20027;-80
2023/04/24 08:44:01;;;;;;;10.82;4.82;;;;;;;17.77;100.00;100923.66;5093704;28;20085;-81
2023/04/24 08:46:27;;;;;;;8.27;4.35;;;;;;;18.91;100.00;100976.97;5112178;28;20028;-80
2023/04/24 08:48:52;;;;;;;8.05;3.90;;;;;;;18.89;100.00;100935.81;5112117;28;20435;-82
2023/04/24 08:51:19;;;;;;;8.70;5.30;;;;;;;19.05;100.00;100941.06;5112601;28;20052;-81
2023/04/24 08:53:46;;;;;;;6.13;3.95;;;;;;;18.64;100.00;100984.19;5094208;28;20039;-82
2023/04/24 08:56:11;;;;;;;10.85;4.82;;;;;;;17.28;100.00;100987.38;5112275;28;20028;-83
2023/04/24 08:58:38;;;;;;;5.38;4.00;;;;;;;18.64;100.00;100983.38;5112776;28;20050;-84
2023/04/24 09:01:04;;;;;;;7.95;4.60;;;;;;;18.87;100.00;100898.13;5094438;28;20039;-82
2023/04/24 09:03:31;;;;;;;7.43;4.75;;;;;;;19.36;100.00;100938.72;5111963;28;20073;-83
2023/04/24 09:05:57;;;;;;;8.23;4.65;;;;;;;19.02;100.00;100983.28;5094289;28;20557;-80
2023/04/24 09:08:25;;;;;;;9.48;4.55;;;;;;;19.89;100.00;100983.34;5112644;28;20071;-80
2023/04/24 09:10:51;;;;;;;6.78;4.57;;;;;;;19.51;100.00;101005.03;5111963;28;20028;-82
2023/04/24 09:13:18;;;;;;;14.23;4.90;;;;;;;18.89;100.00;100933.22;5094301;28;20035;-81
2023/04/24 09:15:43;;;;;;;9.13;4.10;;;;;;;19.55;100.00;100944.63;5112174;28;20509;-80
2023/04/24 09:18:09;;;;;;;7.10;4.05;;;;;;;18.45;100.00;100959.31;5093807;28;20027;-80
2023/04/24 09:20:35;;;;;;;7.43;4.70;;;;;;;19.31;100.00;100943.25;5093922;28;20036;-80
2023/04/24 09:23:01;;;;;;;5.97;3.90;;;;;;;19.54;100.00;100942.13;5094169;28;20028;-81
2023/04/24 09:25:35;;;;;;;6.63;4.00;;;;;;;20.64;100.00;101007.00;5111828;28;20031;-81
2023/04/24 09:28:05;;;;;;;5.57;4.60;;;;;;;20.22;100.00;100998.94;5093726;28;20040;-82
2023/04/24 09:30:31;;;;;;;7.10;4.70;;;;;;;20.15;100.00;100924.38;5112997;28;20039;-83
2023/04/24 09:33:15;;;;;;;7.78;4.43;;;;;;;20.09;100.00;100986.66;5115725;28;20032;-82
2023/04/24 09:35:51;;;;;;;6.22;4.07;;;;;;;20.65;100.00;101010.44;5097566;28;20160;-84
2023/04/24 09:38:17;;;;;;;5.60;4.40;;;;;;;20.05;100.00;100949.84;5097355;28;20023;-84
2023/04/24 09:40:43;;;;;;;6.95;4.18;;;;;;;20.62;100.00;101006.25;5097214;28;20052;-79
2023/04/24 09:43:11;;;;;;;6.80;4.20;;;;;;;19.05;100.00;100954.78;5115744;28;20032;-78
2023/04/24 09:45:40;;;;;;;6.82;4.60;;;;;;;19.90;100.00;100966.13;5097064;28;20540;-82
2023/04/24 09:48:09;;;;;;;8.85;4.60;;;;;;;19.60;100.00;100998.59;5115638;28;20031;-75
2023/04/24 09:50:35;;;;;;;6.93;4.40;;;;;;;19.82;100.00;100988.91;5097333;28;20375;-80
2023/04/24 09:53:07;;;;;;;7.30;4.28;;;;;;;20.67;100.00;100962.91;5115395;28;20038;-81
2023/04/24 09:55:32;;;;;;;;;;;;;;;19.87;100.00;101010.97;5097574;28;20031;-79
2023/04/24 09:58:00;;;;;;;9.77;4.77;;;;;;;20.26;100.00;100976.34;5097661;28;19922;-80
2023/04/24 10:00:29;;;;;;;10.93;4.80;;;;;;;20.10;100.00;100999.50;5096695;28;20337;-81
2023/04/24 10:03:03;;;;;;;7.22;4.30;;;;;;;19.41;100.00;100987.50;5097069;28;20031;-81
2023/04/24 10:05:33;;;;;;;7.78;5.10;;;;;;;19.79;100.00;100942.56;5096922;28;20044;-78
2023/04/24 10:08:02;;;;;;;8.65;4.55;;;;;;;20.44;100.00;101004.63;5114837;28;20486;-78
2023/04/24 10:10:27;;;;;;;11.77;6.47;;;;;;;19.92;100.00;100974.63;5096798;28;20039;-80
2023/04/24 10:12:54;;;;;;;8.80;5.00;;;;;;;21.24;100.00;101027.91;5114590;28;20421;-79
2023/04/24 10:15:21;;;;;;;7.90;4.50;;;;;;;21.32;100.00;100992.09;5096642;28;20087;-80
2023/04/24 10:17:53;;;;;;;8.40;4.80;;;;;;;21.15;100.00;101010.31;5096992;28;20023;-81
2023/04/24 10:20:21;;;;;;;9.93;4.75;;;;;;;20.34;100.00;101003.44;5114640;28;20028;-79
2023/04/24 10:22:52;;;;;;;9.15;4.43;;;;;;;20.95;100.00;100976.91;5096434;28;20031;-81
2023/04/24 10:25:23;;;;;;;7.97;4.53;;;;;;;21.51;100.00;101018.63;5096846;28;20127;-80
2023/04/24 10:27:50;;;;;;;8.02;4.70;;;;;;;20.50;100.00;101004.31;5130435;27;20039;-78
2023/04/24 10:30:18;;;;;;;7.10;4.85;;;;;;;20.22;100.00;101009.25;5096505;28;20114;-78
2023/04/24 10:32:44;;;;;;;6.72;4.50;;;;;;;20.46;100.00;101025.25;5096264;28;20023;-76
2023/04/24 10:35:12;;;;;;;9.68;4.68;;;;;;;21.16;100.00;101030.09;5095365;28;20034;-78
2023/04/24 10:37:41;;;;;;;7.57;4.60;;;;;;;21.78;100.00;101034.34;5096440;28;20448;-76
2023/04/24 10:40:10;;;;;;;10.05;4.82;;;;;;;21.98;100.00;101000.41;5096025;28;20042;-79
2023/04/24 10:42:41;;;;;;;6.95;4.25;;;;;;;21.93;100.00;101030.88;5114255;28;20031;-77
2023/04/24 10:45:15;;;;;;;7.97;4.97;;;;;;;21.05;100.00;101015.16;5114328;28;20052;-78
2023/04/24 10:47:42;;;;;;;8.57;4.50;;;;;;;22.14;100.00;101037.44;5113960;28;20040;-77
2023/04/24 10:50:10;;;;;;;7.93;4.63;;;;;;;21.52;100.00;101059.97;5095779;28;20121;-80
2023/04/24 10:52:54;;;;;;;7.60;4.38;;;;;;;19.50;100.00;101056.72;5130420;27;20069;-77
2023/04/24 10:55:43;;;;;;;9.40;4.22;;;;;;;21.63;100.00;101056.75;5096597;28;20032;-81
2023/04/24 10:58:09;;;;;;;5.70;4.22;;;;;;;21.04;100.00;101030.75;5095370;28;20073;-80
2023/04/24 11:00:44;;;;;;;10.85;4.80;;;;;;;21.04;100.00;101062.63;5114423;28;20387;-81
2023/04/24 11:03:31;;;;;;;9.25;5.10;;;;;;;21.84;100.00;101071.13;5129554;27;20092;-75
2023/04/24 11:06:01;;;;;;;10.15;5.07;;;;;;;20.47;100.00;101074.25;5095596;28;20127;-77
2023/04/24 11:08:48;;;;;;;8.05;4.80;;;;;;;20.11;100.00;100992.56;5113004;28;20131;-80